createdAt,value
2023-01-06T00:01:22.697Z,3.67
2023-01-06T00:03:52.095Z,3.38
2023-01-06T00:06:22.974Z,3.83
2023-01-06T00:08:52.567Z,5.40
2023-01-06T00:11:20.253Z,7.30
2023-01-06T00:13:48.678Z,5.15
2023-01-06T00:16:20.359Z,4.85
2023-01-06T00:18:48.749Z,5.30
2023-01-06T00:21:17.040Z,4.97
2023-01-06T00:23:45.038Z,5.70
2023-01-06T00:26:14.073Z,4.53
2023-01-06T00:28:42.030Z,6.15
2023-01-06T00:31:12.023Z,5.35
2023-01-06T00:33:40.463Z,6.35
2023-01-06T00:36:09.413Z,5.40
2023-01-06T00:38:37.943Z,4.65
2023-01-06T00:41:26.870Z,7.43
2023-01-06T00:43:56.608Z,5.10
2023-01-06T00:46:26.891Z,4.43
2023-01-06T00:49:04.678Z,3.55
2023-01-06T00:51:33.404Z,5.93
2023-01-06T00:54:01.985Z,4.15
2023-01-06T00:56:29.909Z,5.13
2023-01-06T00:58:59.431Z,4.50
2023-01-06T01:01:27.242Z,7.15
2023-01-06T01:03:56.071Z,6.00
2023-01-06T01:06:23.904Z,6.93
2023-01-06T01:08:54.757Z,6.10
2023-01-06T01:11:41.082Z,5.07
2023-01-06T01:14:11.232Z,3.97
2023-01-06T01:16:39.425Z,5.60
2023-01-06T01:19:07.786Z,5.32
2023-01-06T01:21:35.510Z,4.10
2023-01-06T01:24:03.590Z,3.35
2023-01-06T01:26:31.385Z,4.25
2023-01-06T01:28:59.499Z,4.97
2023-01-06T01:31:28.715Z,4.95
2023-01-06T01:33:56.668Z,3.25
2023-01-06T01:36:24.604Z,3.10
2023-01-06T01:38:52.600Z,3.25
2023-01-06T01:41:23.226Z,4.57
2023-01-06T01:43:54.134Z,6.20
2023-01-06T01:46:26.652Z,7.43
2023-01-06T01:48:59.278Z,4.85
2023-01-06T01:54:02.039Z,6.90
2023-01-06T01:56:35.463Z,2.83
2023-01-06T01:59:07.476Z,3.63
2023-01-06T02:01:35.824Z,4.13
2023-01-06T02:04:06.504Z,2.85
2023-01-06T02:06:34.267Z,3.78
2023-01-06T02:09:05.479Z,2.85
2023-01-06T02:11:34.881Z,7.45
2023-01-06T02:14:10.889Z,5.55
2023-01-06T02:16:47.935Z,2.85
2023-01-06T02:19:35.430Z,1.85
2023-01-06T02:22:19.186Z,4.43
2023-01-06T02:25:28.757Z,5.60
2023-01-06T02:28:21.047Z,3.53
2023-01-06T02:31:31.736Z,5.75
2023-01-06T02:34:06.508Z,6.57
2023-01-06T02:36:44.962Z,4.00
2023-01-06T02:39:23.116Z,3.65
2023-01-06T02:42:03.881Z,6.07
2023-01-06T02:44:36.561Z,4.20
2023-01-06T02:47:14.973Z,4.03
2023-01-06T02:49:49.882Z,4.85
2023-01-06T02:52:25.037Z,6.72
2023-01-06T02:54:58.195Z,3.83
2023-01-06T02:57:36.852Z,4.90
2023-01-06T03:00:13.661Z,6.30
2023-01-06T03:02:46.917Z,3.58
2023-01-06T03:05:18.292Z,5.97
2023-01-06T03:07:48.334Z,4.37
2023-01-06T03:10:19.807Z,4.57
2023-01-06T03:12:53.885Z,5.22
2023-01-06T03:15:22.364Z,6.75
2023-01-06T03:17:51.839Z,5.90
2023-01-06T03:20:20.728Z,6.07
2023-01-06T03:22:49.548Z,5.93
2023-01-06T03:25:17.642Z,5.63
2023-01-06T03:27:45.672Z,3.78
2023-01-06T03:30:14.220Z,5.13
2023-01-06T03:32:55.597Z,6.07
2023-01-06T03:35:37.081Z,5.97
2023-01-06T03:38:18.242Z,6.25
2023-01-06T03:40:54.222Z,6.45
2023-01-06T03:43:27.817Z,3.83
2023-01-06T03:46:12.821Z,7.57
2023-01-06T03:48:52.463Z,5.30
2023-01-06T03:51:33.985Z,8.02
2023-01-06T03:54:08.244Z,11.82
2023-01-06T03:56:40.479Z,7.82
2023-01-06T03:59:13.412Z,4.65
2023-01-06T04:01:43.396Z,6.82
2023-01-06T04:04:13.090Z,5.97
2023-01-06T04:06:41.022Z,5.20
2023-01-06T04:09:09.026Z,7.88
2023-01-06T04:11:50.877Z,9.00
2023-01-06T04:14:18.881Z,8.45
2023-01-06T04:16:46.637Z,5.85
2023-01-06T04:19:15.911Z,7.35
2023-01-06T04:21:43.722Z,6.80
2023-01-06T04:24:12.053Z,9.00
2023-01-06T04:26:39.762Z,7.18
2023-01-06T04:29:07.793Z,7.53
2023-01-06T04:31:35.910Z,5.93
2023-01-06T04:34:04.004Z,7.13
2023-01-06T04:36:33.238Z,5.18
2023-01-06T04:39:01.787Z,8.40
2023-01-06T04:41:29.529Z,8.55
2023-01-06T04:43:58.249Z,11.52
2023-01-06T04:46:25.996Z,6.68
2023-01-06T04:48:53.961Z,6.35
2023-01-06T04:51:21.671Z,7.55
2023-01-06T04:53:51.011Z,8.85
2023-01-06T04:56:19.028Z,8.95
2023-01-06T04:58:47.415Z,10.57
2023-01-06T05:01:15.438Z,7.80
2023-01-06T05:03:43.489Z,10.98
2023-01-06T05:06:12.982Z,7.13
2023-01-06T05:08:42.314Z,5.35
2023-01-06T05:11:14.117Z,5.90
2023-01-06T05:13:42.643Z,11.65
2023-01-06T05:16:12.379Z,10.55
2023-01-06T05:18:40.407Z,7.63
2023-01-06T05:21:08.858Z,6.65
2023-01-06T05:23:38.029Z,5.20
2023-01-06T05:26:06.158Z,8.80
2023-01-06T05:28:35.551Z,6.80
2023-01-06T05:31:04.715Z,8.98
2023-01-06T05:33:33.538Z,8.05
2023-01-06T05:36:02.973Z,4.95
2023-01-06T05:38:32.879Z,6.13
2023-01-06T05:41:01.832Z,8.75
2023-01-06T05:43:30.501Z,8.25
2023-01-06T05:46:00.357Z,6.65
2023-01-06T05:48:28.798Z,8.68
2023-01-06T05:51:01.936Z,6.28
2023-01-06T05:53:32.318Z,6.45
2023-01-06T05:56:01.395Z,6.53
2023-01-06T05:58:29.584Z,5.32
2023-01-06T06:00:58.600Z,7.18
2023-01-06T06:03:26.866Z,9.02
2023-01-06T06:05:54.645Z,12.23
2023-01-06T06:08:22.647Z,7.80
2023-01-06T06:10:50.317Z,7.13
2023-01-06T06:13:18.460Z,9.55
2023-01-06T06:15:46.496Z,8.35
2023-01-06T06:18:16.005Z,7.93
2023-01-06T06:20:43.675Z,24.67
2023-01-06T06:23:11.642Z,16.83
2023-01-06T06:25:39.584Z,25.95
2023-01-06T06:28:07.521Z,11.65
2023-01-06T06:30:35.213Z,8.80
2023-01-06T06:33:03.436Z,4.53
2023-01-06T06:35:32.543Z,14.05
2023-01-06T06:38:00.508Z,6.22
2023-01-06T06:40:28.720Z,12.30
2023-01-06T06:42:57.687Z,9.50
2023-01-06T06:45:25.429Z,5.70
2023-01-06T06:47:54.843Z,9.38
2023-01-06T06:50:22.559Z,8.10
2023-01-06T06:52:51.860Z,7.90
2023-01-06T06:55:19.560Z,10.55
2023-01-06T06:57:47.560Z,7.97
2023-01-06T07:00:16.270Z,5.55
2023-01-06T07:02:44.495Z,4.47
2023-01-06T07:05:12.405Z,10.30
2023-01-06T07:07:40.394Z,7.18
2023-01-06T07:10:13.488Z,5.90
2023-01-06T07:12:41.934Z,9.98
2023-01-06T07:15:10.569Z,6.07
2023-01-06T07:17:39.433Z,5.70
2023-01-06T07:20:07.755Z,5.57
2023-01-06T07:22:38.165Z,4.45
2023-01-06T07:25:07.096Z,4.47
2023-01-06T07:27:37.250Z,7.05
2023-01-06T07:30:06.399Z,7.25
2023-01-06T07:32:34.542Z,5.80
2023-01-06T07:35:02.342Z,8.30
2023-01-06T07:37:30.314Z,7.63
2023-01-06T07:39:58.071Z,5.57
2023-01-06T07:42:26.182Z,6.10
2023-01-06T07:44:55.238Z,7.25
2023-01-06T07:47:23.580Z,7.00
2023-01-06T07:49:51.286Z,8.07
2023-01-06T07:52:19.531Z,8.88
2023-01-06T07:54:47.343Z,10.60
2023-01-06T07:57:17.936Z,16.00
2023-01-06T07:59:45.845Z,13.15
2023-01-06T08:02:15.268Z,16.55
2023-01-06T08:04:43.188Z,20.25
2023-01-06T08:07:11.254Z,12.85
2023-01-06T08:09:39.334Z,9.32
2023-01-06T08:12:08.208Z,64.05
2023-01-06T08:14:35.980Z,58.53
2023-01-06T08:17:04.014Z,32.20
2023-01-06T08:19:33.272Z,15.10
2023-01-06T08:22:01.317Z,13.80
2023-01-06T08:24:31.869Z,14.20
2023-01-06T08:27:00.603Z,10.05
2023-01-06T08:29:28.919Z,6.18
2023-01-06T08:32:09.501Z,13.93
2023-01-06T08:34:39.661Z,11.27
2023-01-06T08:37:07.752Z,9.20
2023-01-06T08:39:35.651Z,8.63
2023-01-06T08:42:03.791Z,6.93
2023-01-06T08:44:31.762Z,13.02
2023-01-06T08:46:59.830Z,5.88
2023-01-06T08:49:27.675Z,5.55
2023-01-06T08:51:57.005Z,6.32
2023-01-06T08:54:24.756Z,7.18
2023-01-06T08:56:52.724Z,7.88
2023-01-06T08:59:20.487Z,6.50
2023-01-06T09:01:48.815Z,4.90
2023-01-06T09:04:16.710Z,6.40
2023-01-06T09:06:44.832Z,4.68
2023-01-06T09:09:14.099Z,7.57
2023-01-06T09:11:43.328Z,3.03
2023-01-06T09:14:11.561Z,3.30
2023-01-06T09:16:39.550Z,3.05
2023-01-06T09:19:07.304Z,3.85
2023-01-06T09:21:35.260Z,4.80
2023-01-06T09:24:03.069Z,2.92
2023-01-06T09:26:32.581Z,5.28
2023-01-06T09:29:00.297Z,15.23
2023-01-06T09:31:28.321Z,4.05
2023-01-06T09:33:56.290Z,11.82
2023-01-06T09:36:24.590Z,7.32
2023-01-06T09:38:52.333Z,23.52
2023-01-06T09:41:48.726Z,18.95
2023-01-06T09:44:23.840Z,14.30
2023-01-06T09:46:53.690Z,16.10
2023-01-06T09:49:28.380Z,12.43
2023-01-06T09:52:00.745Z,11.07
2023-01-06T09:54:32.394Z,14.05
2023-01-06T09:57:05.469Z,11.70
2023-01-06T09:59:42.811Z,8.85
2023-01-06T10:02:15.621Z,16.70
2023-01-06T10:04:43.537Z,18.30
2023-01-06T10:07:20.873Z,10.60
2023-01-06T10:10:02.542Z,12.07
2023-01-06T10:12:48.024Z,15.82
2023-01-06T10:15:27.768Z,11.68
2023-01-06T10:18:13.957Z,12.02
2023-01-06T10:20:55.336Z,11.77
2023-01-06T10:23:36.889Z,10.68
2023-01-06T10:26:12.505Z,9.05
2023-01-06T10:28:43.480Z,12.88
2023-01-06T10:31:17.434Z,9.13
2023-01-06T10:33:49.803Z,9.90
2023-01-06T10:36:23.933Z,9.63
2023-01-06T10:38:54.472Z,11.60
2023-01-06T10:41:28.177Z,12.88
2023-01-06T10:43:56.315Z,8.85
2023-01-06T10:46:29.547Z,10.70
2023-01-06T10:48:57.757Z,16.80
2023-01-06T10:51:36.887Z,15.60
2023-01-06T10:54:10.568Z,13.40
2023-01-06T10:56:40.915Z,11.27
2023-01-06T10:59:11.021Z,13.07
2023-01-06T11:01:50.307Z,11.65
2023-01-06T11:04:19.905Z,10.98
2023-01-06T11:06:51.614Z,13.00
2023-01-06T11:09:30.666Z,10.93
2023-01-06T11:12:02.136Z,14.55
2023-01-06T11:14:32.532Z,13.13
2023-01-06T11:17:04.431Z,14.50
2023-01-06T11:19:39.749Z,13.60
2023-01-06T11:22:34.832Z,13.52
2023-01-06T11:25:04.787Z,13.55
2023-01-06T11:27:32.493Z,9.43
2023-01-06T11:30:21.154Z,14.18
2023-01-06T11:32:50.441Z,12.02
2023-01-06T11:35:23.145Z,13.05
2023-01-06T11:37:58.693Z,14.60
2023-01-06T11:40:32.119Z,16.52
2023-01-06T11:43:07.266Z,16.15
2023-01-06T11:45:37.323Z,17.38
2023-01-06T11:48:15.082Z,11.95
2023-01-06T11:50:51.726Z,13.10
2023-01-06T11:53:21.288Z,13.07
2023-01-06T11:56:02.434Z,10.00
2023-01-06T11:58:41.301Z,10.95
2023-01-06T12:01:18.041Z,14.90
2023-01-06T12:03:51.000Z,11.52
2023-01-06T12:06:29.155Z,11.52
2023-01-06T12:09:00.930Z,10.68
2023-01-06T12:11:38.008Z,13.60
2023-01-06T12:14:19.643Z,14.90
2023-01-06T12:17:02.652Z,11.15
2023-01-06T12:19:41.011Z,13.88
2023-01-06T12:22:22.771Z,12.15
2023-01-06T12:24:52.049Z,15.13
2023-01-06T12:27:29.205Z,14.48
2023-01-06T12:30:01.688Z,10.65
2023-01-06T12:32:37.384Z,9.52
2023-01-06T12:35:12.500Z,11.77
2023-01-06T12:37:46.491Z,15.15
2023-01-06T12:40:22.302Z,12.88
2023-01-06T12:42:56.887Z,13.48
2023-01-06T12:45:35.181Z,13.50
2023-01-06T12:48:13.163Z,11.85
2023-01-06T12:50:47.206Z,7.65
2023-01-06T12:53:21.228Z,10.07
2023-01-06T12:56:01.237Z,11.65
2023-01-06T12:58:36.934Z,10.27
2023-01-06T13:01:10.328Z,11.73
2023-01-06T13:04:25.945Z,9.57
2023-01-06T13:07:08.753Z,11.77
2023-01-06T13:09:54.367Z,12.10
2023-01-06T13:12:39.293Z,11.02
2023-01-06T13:15:15.834Z,10.65
2023-01-06T13:17:48.367Z,9.13
2023-01-06T13:20:22.182Z,12.30
2023-01-06T13:23:04.775Z,11.90
2023-01-06T13:25:57.719Z,9.68
2023-01-06T13:31:23.191Z,12.50
2023-01-06T13:34:14.630Z,10.70
2023-01-06T13:36:55.763Z,13.27
2023-01-06T13:39:28.203Z,16.05
2023-01-06T13:41:58.751Z,17.08
2023-01-06T13:44:31.438Z,17.98
2023-01-06T13:47:05.165Z,17.92
2023-01-06T13:49:34.293Z,12.52
2023-01-06T13:52:04.378Z,13.10
2023-01-06T13:55:03.606Z,16.63
2023-01-06T13:57:38.081Z,13.80
2023-01-06T14:00:19.871Z,12.52
2023-01-06T14:03:03.528Z,19.35
2023-01-06T14:05:58.302Z,14.88
2023-01-06T14:08:39.649Z,15.65
2023-01-06T14:11:29.530Z,33.90
2023-01-06T14:13:59.373Z,21.92
2023-01-06T14:16:42.029Z,21.80
2023-01-06T14:19:17.304Z,15.77
2023-01-06T14:21:46.389Z,17.15
2023-01-06T14:24:26.861Z,12.88
2023-01-06T14:27:00.934Z,13.45
2023-01-06T14:29:49.425Z,13.93
2023-01-06T14:32:54.667Z,19.95
2023-01-06T14:35:30.074Z,14.65
2023-01-06T14:38:02.784Z,20.20
2023-01-06T14:40:33.751Z,22.88
2023-01-06T14:43:22.904Z,18.45
2023-01-06T14:45:52.076Z,31.92
2023-01-06T14:48:24.322Z,34.25
2023-01-06T14:50:58.830Z,28.05
2023-01-06T14:53:32.050Z,36.33
2023-01-06T14:56:01.232Z,43.63
2023-01-06T14:58:32.600Z,39.85
2023-01-06T15:01:03.009Z,35.17
2023-01-06T15:03:32.500Z,27.63
2023-01-06T15:06:12.734Z,39.20
2023-01-06T15:08:40.447Z,35.92
2023-01-06T15:11:24.238Z,39.78
2023-01-06T15:13:53.396Z,67.68
2023-01-06T15:16:29.241Z,168.82
2023-01-06T15:18:57.118Z,143.55
2023-01-06T15:21:25.583Z,154.95
2023-01-06T15:23:55.498Z,160.02
2023-01-06T15:26:27.164Z,131.68
2023-01-06T15:29:01.977Z,97.00
2023-01-06T15:31:33.625Z,153.95
2023-01-06T15:34:04.053Z,103.60
2023-01-06T15:36:33.464Z,90.22
2023-01-06T15:39:03.268Z,73.63
2023-01-06T15:41:36.604Z,77.40
2023-01-06T15:44:30.281Z,41.15
2023-01-06T15:47:09.166Z,41.30
2023-01-06T15:49:41.488Z,32.75
2023-01-06T15:52:18.770Z,33.38
2023-01-06T15:54:47.411Z,33.10
2023-01-06T15:57:17.356Z,29.67
2023-01-06T15:59:54.852Z,29.73
2023-01-06T16:02:26.192Z,27.02
2023-01-06T16:04:54.789Z,30.98
2023-01-06T16:07:34.250Z,33.55
2023-01-06T16:10:02.035Z,153.18
2023-01-06T16:12:30.038Z,173.30
2023-01-06T16:14:59.209Z,135.70
2023-01-06T16:17:31.239Z,99.05
2023-01-06T16:20:03.171Z,81.30
2023-01-06T16:22:37.790Z,49.63
2023-01-06T16:25:08.602Z,38.17
2023-01-06T16:27:36.726Z,45.00
2023-01-06T16:30:21.932Z,29.95
2023-01-06T16:32:52.543Z,36.05
2023-01-06T16:35:22.189Z,40.35
2023-01-06T16:37:50.735Z,27.63
2023-01-06T16:40:20.933Z,36.28
2023-01-06T16:42:49.936Z,34.25
2023-01-06T16:45:24.859Z,31.80
2023-01-06T16:47:53.743Z,24.48
2023-01-06T16:50:26.972Z,28.52
2023-01-06T16:53:14.711Z,27.20
2023-01-06T16:55:43.413Z,25.10
2023-01-06T16:58:17.309Z,22.75
2023-01-06T17:00:51.440Z,25.35
2023-01-06T17:03:21.908Z,21.25
2023-01-06T17:05:49.904Z,28.75
2023-01-06T17:08:22.042Z,24.23
2023-01-06T17:10:49.804Z,33.83
2023-01-06T17:13:36.635Z,17.85
2023-01-06T17:16:15.407Z,17.42
2023-01-06T17:18:52.015Z,46.45
2023-01-06T17:21:22.303Z,65.93
2023-01-06T17:23:53.938Z,20.65
2023-01-06T17:26:24.375Z,22.87
2023-01-06T17:28:54.536Z,22.83
2023-01-06T17:31:32.284Z,23.10
2023-01-06T17:34:10.765Z,31.33
2023-01-06T17:36:40.271Z,24.17
2023-01-06T17:39:16.700Z,37.85
2023-01-06T17:41:44.498Z,58.42
2023-01-06T17:44:16.665Z,68.00
2023-01-06T17:46:46.999Z,67.30
2023-01-06T17:49:35.203Z,51.72
2023-01-06T17:52:14.408Z,54.03
2023-01-06T17:55:02.203Z,75.13
2023-01-06T17:57:29.915Z,56.88
2023-01-06T17:59:58.390Z,26.58
2023-01-06T18:02:40.008Z,23.50
2023-01-06T18:06:01.767Z,26.10
2023-01-06T18:08:32.631Z,16.10
2023-01-06T18:11:18.344Z,24.23
2023-01-06T18:13:46.499Z,52.08
2023-01-06T18:16:26.737Z,63.88
2023-01-06T18:19:03.092Z,62.45
2023-01-06T18:21:37.155Z,41.65
2023-01-06T18:24:17.912Z,25.90
2023-01-06T18:26:49.981Z,25.65
2023-01-06T18:29:20.149Z,21.52
2023-01-06T18:31:50.695Z,18.05
2023-01-06T18:34:26.565Z,20.30
2023-01-06T18:36:56.468Z,54.58
2023-01-06T18:39:25.927Z,52.25
2023-01-06T18:42:16.763Z,34.47
2023-01-06T18:44:44.766Z,22.45
2023-01-06T18:47:15.385Z,17.77
2023-01-06T18:49:44.622Z,15.20
2023-01-06T18:52:35.219Z,18.10
2023-01-06T18:55:03.719Z,18.95
2023-01-06T18:57:33.073Z,17.67
2023-01-06T19:00:23.600Z,19.75
2023-01-06T19:02:52.700Z,14.38
2023-01-06T19:05:22.040Z,19.48
2023-01-06T19:07:52.591Z,58.13
2023-01-06T19:10:27.712Z,54.92
2023-01-06T19:13:00.202Z,29.15
2023-01-06T19:15:28.206Z,24.55
2023-01-06T19:17:56.271Z,31.30
2023-01-06T19:20:28.912Z,61.17
2023-01-06T19:22:57.767Z,48.60
2023-01-06T19:25:32.879Z,74.20
2023-01-06T19:28:03.051Z,73.85
2023-01-06T19:30:42.495Z,84.85
2023-01-06T19:33:22.717Z,83.88
2023-01-06T19:35:52.198Z,69.13
2023-01-06T19:38:26.380Z,44.58
2023-01-06T19:40:55.697Z,21.77
2023-01-06T19:43:27.633Z,17.85
2023-01-06T19:45:55.515Z,19.48
2023-01-06T19:48:25.644Z,15.52
2023-01-06T19:51:02.965Z,14.13
2023-01-06T19:53:43.412Z,14.07
2023-01-06T19:56:18.713Z,11.45
2023-01-06T19:58:52.822Z,13.38
2023-01-06T20:01:22.191Z,12.95
2023-01-06T20:03:54.050Z,14.60
2023-01-06T20:06:24.510Z,13.02
2023-01-06T20:08:53.869Z,37.20
2023-01-06T20:11:24.712Z,54.00
2023-01-06T20:13:53.061Z,63.13
2023-01-06T20:16:21.036Z,52.10
2023-01-06T20:18:50.534Z,62.45
2023-01-06T20:21:18.219Z,72.00
2023-01-06T20:23:47.861Z,62.90
2023-01-06T20:26:15.751Z,48.42
2023-01-06T20:28:43.739Z,42.05
2023-01-06T20:31:11.399Z,44.33
2023-01-06T20:33:39.527Z,91.63
2023-01-06T20:36:08.166Z,115.97
2023-01-06T20:38:36.233Z,107.47
2023-01-06T20:41:06.671Z,98.53
2023-01-06T20:43:34.736Z,108.90
2023-01-06T20:46:02.477Z,100.90
2023-01-06T20:48:30.541Z,106.57
2023-01-06T20:50:58.585Z,110.03
2023-01-06T20:53:26.616Z,99.63
2023-01-06T20:55:54.528Z,103.20
2023-01-06T20:58:23.812Z,96.93
2023-01-06T21:00:51.639Z,102.30
2023-01-06T21:03:19.787Z,92.03
2023-01-06T21:05:47.556Z,100.20
2023-01-06T21:08:15.516Z,105.93
2023-01-06T21:10:43.277Z,102.40
2023-01-06T21:13:11.255Z,107.35
2023-01-06T21:15:40.309Z,103.18
2023-01-06T21:18:08.497Z,101.15
2023-01-06T21:20:36.188Z,106.22
2023-01-06T21:23:04.155Z,114.40
2023-01-06T21:25:32.281Z,115.63
2023-01-06T21:28:00.209Z,117.00
2023-01-06T21:30:29.013Z,126.13
2023-01-06T21:32:58.964Z,120.70
2023-01-06T21:35:26.679Z,111.78
2023-01-06T21:37:54.655Z,111.80
2023-01-06T21:40:22.641Z,107.57
2023-01-06T21:43:08.446Z,112.60
2023-01-06T21:45:36.259Z,125.63
2023-01-06T21:48:06.716Z,127.68
2023-01-06T21:50:38.220Z,121.72
2023-01-06T21:53:07.354Z,115.82
2023-01-06T21:55:35.159Z,124.70
2023-01-06T21:58:03.406Z,118.65
2023-01-06T22:00:31.813Z,94.22
2023-01-06T22:02:59.920Z,91.15
2023-01-06T22:05:29.484Z,91.28
2023-01-06T22:07:57.581Z,85.63
2023-01-06T22:10:27.466Z,71.40
2023-01-06T22:12:59.311Z,49.38
2023-01-06T22:15:28.926Z,47.55
2023-01-06T22:17:59.678Z,43.17
2023-01-06T22:20:29.854Z,39.08
2023-01-06T22:22:58.452Z,37.53
2023-01-06T22:25:26.118Z,35.35
2023-01-06T22:27:54.553Z,35.50
2023-01-06T22:30:22.255Z,33.90
2023-01-06T22:32:50.225Z,37.90
2023-01-06T22:35:19.300Z,40.03
2023-01-06T22:37:48.619Z,47.30
2023-01-06T22:40:16.509Z,39.85
2023-01-06T22:42:45.092Z,47.25
2023-01-06T22:45:13.792Z,41.25
2023-01-06T22:47:41.842Z,38.70
2023-01-06T22:50:10.163Z,42.25
2023-01-06T22:52:38.454Z,36.97
2023-01-06T22:55:09.197Z,35.13
2023-01-06T22:57:37.137Z,39.67
2023-01-06T23:00:11.924Z,43.55
2023-01-06T23:02:40.879Z,39.60
2023-01-06T23:05:09.591Z,36.83
2023-01-06T23:07:39.414Z,42.25
2023-01-06T23:10:11.213Z,34.45
2023-01-06T23:12:40.403Z,35.88
2023-01-06T23:15:09.561Z,33.15
2023-01-06T23:17:38.245Z,31.48
2023-01-06T23:20:07.155Z,38.65
2023-01-06T23:22:35.056Z,31.02
2023-01-06T23:25:02.834Z,29.73
2023-01-06T23:27:32.107Z,25.58
2023-01-06T23:29:59.759Z,24.83
2023-01-06T23:32:27.992Z,28.75
2023-01-06T23:34:55.691Z,28.38
2023-01-06T23:37:23.647Z,24.30
2023-01-06T23:39:53.227Z,22.50
2023-01-06T23:42:21.232Z,24.23
2023-01-06T23:44:50.307Z,24.65
2023-01-06T23:47:18.441Z,23.05
2023-01-06T23:49:48.656Z,23.63
2023-01-06T23:52:16.624Z,22.55
2023-01-06T23:54:44.394Z,27.25
2023-01-06T23:57:12.332Z,23.40
2023-01-06T23:59:40.035Z,25.88
